createdAt,value
2024-04-13T00:10:21.953Z,66.09
2024-04-13T00:10:53.920Z,64.09
2024-04-13T00:11:53.908Z,63.61
2024-04-13T00:13:28.418Z,63.60
2024-04-13T00:13:53.955Z,64.01
2024-04-13T00:14:53.927Z,63.75
2024-04-13T00:15:53.905Z,63.66
2024-04-13T00:16:54.024Z,63.68
2024-04-13T00:19:26.317Z,65.80
2024-04-13T00:19:58.277Z,63.61
2024-04-13T00:20:58.262Z,63.13
2024-04-13T00:21:58.248Z,63.21
2024-04-13T00:22:58.310Z,63.12
2024-04-13T00:23:58.313Z,62.72
2024-04-13T00:24:58.292Z,62.61
2024-04-13T00:25:58.263Z,62.72
2024-04-13T00:26:58.268Z,61.80
2024-04-13T00:27:58.278Z,62.23
2024-04-13T00:28:58.265Z,62.88
2024-04-13T00:29:58.278Z,63.32
2024-04-13T00:30:58.323Z,63.85
2024-04-13T00:31:58.268Z,63.58
2024-04-13T00:32:58.314Z,62.73
2024-04-13T00:33:58.292Z,62.61
2024-04-13T00:38:39.435Z,67.44
2024-04-13T00:39:11.402Z,64.40
2024-04-13T00:40:11.342Z,63.97
2024-04-13T00:41:12.104Z,63.87
2024-04-13T00:54:39.226Z,68.83
2024-04-13T00:54:59.183Z,67.74
2024-04-13T00:55:59.157Z,66.87
2024-04-13T00:56:59.196Z,65.47
2024-04-13T00:57:59.164Z,65.14
2024-04-13T00:58:59.148Z,65.16
2024-04-13T00:59:59.191Z,64.78
2024-04-13T01:00:59.179Z,64.05
2024-04-13T01:01:59.205Z,63.71
2024-04-13T01:02:59.243Z,63.50
2024-04-13T01:03:59.186Z,63.96
2024-04-13T01:04:59.147Z,64.27
2024-04-13T01:05:59.229Z,64.73
2024-04-13T01:19:26.107Z,65.59
2024-04-13T01:19:47.018Z,64.72
2024-04-13T01:20:47.010Z,64.23
2024-04-13T01:21:46.997Z,64.44
2024-04-13T01:22:47.034Z,64.70
2024-04-13T01:23:47.023Z,64.51
2024-04-13T01:24:47.036Z,64.06
2024-04-13T01:25:47.021Z,63.88
2024-04-13T01:26:47.007Z,63.79
2024-04-13T01:27:47.016Z,63.70
2024-04-13T01:28:47.004Z,63.69
2024-04-13T01:29:47.024Z,63.55
2024-04-13T01:30:47.017Z,63.50
2024-04-13T01:31:47.015Z,63.69
2024-04-13T01:32:47.256Z,63.47
2024-04-13T01:33:47.132Z,63.76
2024-04-13T01:34:47.017Z,62.85
2024-04-13T01:35:47.028Z,63.31
2024-04-13T01:36:47.051Z,63.31
2024-04-13T01:37:47.052Z,63.24
2024-04-13T01:38:47.025Z,63.42
2024-04-13T01:39:47.147Z,63.63
2024-04-13T01:40:47.046Z,63.73
2024-04-13T01:41:47.017Z,64.08
2024-04-13T01:42:47.114Z,64.20
2024-04-13T01:43:47.024Z,64.23
2024-04-13T01:44:47.031Z,64.37
2024-04-13T01:45:47.036Z,64.88
2024-04-13T01:46:47.048Z,65.40
2024-04-13T01:47:47.168Z,65.41
2024-04-13T01:54:36.962Z,69.50
2024-04-13T01:55:08.861Z,66.95
2024-04-13T01:56:08.804Z,65.96
2024-04-13T01:57:08.920Z,65.57
2024-04-13T01:58:08.889Z,65.51
2024-04-13T01:59:08.791Z,65.38
2024-04-13T02:00:08.858Z,65.32
2024-04-13T02:01:08.858Z,65.54
2024-04-13T02:02:08.848Z,65.43
2024-04-13T02:03:08.846Z,65.44
2024-04-13T02:04:08.934Z,65.28
2024-04-13T02:05:08.801Z,65.20
2024-04-13T02:06:08.855Z,65.08
2024-04-13T02:07:08.809Z,65.04
2024-04-13T02:08:08.818Z,65.03
2024-04-13T02:09:08.824Z,64.68
2024-04-13T02:10:08.807Z,64.12
2024-04-13T02:11:08.918Z,64.33
2024-04-13T02:12:08.845Z,64.60
2024-04-13T02:13:08.825Z,64.89
2024-04-13T02:14:08.830Z,65.11
2024-04-13T02:15:08.874Z,64.87
2024-04-13T02:16:08.842Z,65.16
2024-04-13T02:17:08.815Z,65.23
2024-04-13T02:18:08.925Z,65.47
2024-04-13T02:19:08.918Z,65.87
2024-04-13T02:20:08.835Z,65.82
2024-04-13T02:21:08.870Z,66.18
2024-04-13T02:27:03.230Z,72.56
2024-04-13T02:27:26.468Z,69.19
2024-04-13T02:28:26.217Z,68.09
2024-04-13T02:29:26.225Z,67.75
2024-04-13T02:30:26.296Z,67.27
2024-04-13T02:31:26.238Z,66.73
2024-04-13T02:32:26.290Z,66.46
2024-04-13T02:34:03.353Z,66.48
2024-04-13T02:34:26.271Z,67.04
2024-04-13T02:35:26.233Z,66.65
2024-04-13T02:36:26.279Z,67.10
2024-04-13T02:37:26.261Z,67.15
2024-04-13T02:38:26.248Z,66.02
2024-04-13T02:39:26.250Z,65.70
2024-04-13T02:40:26.249Z,65.79
2024-04-13T02:44:11.964Z,69.50
2024-04-13T02:44:34.977Z,67.97
2024-04-13T02:45:35.028Z,67.52
2024-04-13T02:46:34.943Z,67.30
2024-04-13T02:49:07.778Z,68.03
2024-04-13T02:49:39.354Z,65.97
2024-04-13T02:50:39.336Z,65.79
2024-04-13T02:51:39.373Z,65.50
2024-04-13T02:52:39.325Z,65.47
2024-04-13T02:53:39.323Z,65.52
2024-04-13T02:54:39.382Z,66.18
2024-04-13T02:55:39.324Z,66.21
2024-04-13T02:56:39.326Z,65.95
2024-04-13T02:57:39.382Z,65.90
2024-04-13T02:58:39.329Z,65.91
2024-04-13T02:59:39.330Z,66.23
2024-04-13T03:00:39.472Z,66.27
2024-04-13T03:05:21.944Z,69.25
2024-04-13T03:05:52.597Z,66.78
2024-04-13T03:06:52.658Z,66.68
2024-04-13T03:07:52.646Z,67.87
2024-04-13T03:08:52.724Z,68.78
2024-04-13T03:09:52.821Z,68.95
2024-04-13T03:10:52.844Z,68.80
2024-04-13T03:12:00.132Z,68.85
2024-04-13T03:13:00.114Z,68.39
2024-04-13T03:14:00.119Z,68.71
2024-04-13T03:15:00.176Z,67.32
2024-04-13T03:16:00.123Z,66.68
2024-04-13T03:17:00.186Z,66.67
2024-04-13T03:18:00.174Z,66.75
2024-04-13T03:19:00.155Z,66.82
2024-04-13T03:20:00.174Z,66.98
2024-04-13T03:21:00.122Z,66.84
2024-04-13T03:22:00.146Z,66.93
2024-04-13T03:23:00.149Z,67.03
2024-04-13T03:24:00.151Z,67.38
2024-04-13T03:25:00.171Z,67.71
2024-04-13T03:26:00.121Z,67.52
2024-04-13T03:27:00.134Z,66.85
2024-04-13T03:28:00.134Z,67.27
2024-04-13T03:29:00.135Z,68.56
2024-04-13T03:30:00.222Z,69.05
2024-04-13T03:31:00.267Z,69.26
2024-04-13T03:32:00.282Z,69.37
2024-04-13T03:33:00.351Z,69.14
2024-04-13T03:34:00.395Z,68.95
2024-04-13T03:35:00.416Z,68.15
2024-04-13T03:36:00.478Z,67.94
2024-04-13T03:37:00.587Z,68.05
2024-04-13T03:38:00.576Z,67.90
2024-04-13T03:39:00.623Z,67.66
2024-04-13T03:42:36.530Z,68.58
2024-04-13T03:43:09.349Z,67.10
2024-04-13T03:44:09.369Z,66.95
2024-04-13T03:45:09.392Z,66.91
2024-04-13T03:46:09.359Z,66.93
2024-04-13T03:47:09.369Z,67.00
2024-04-13T03:48:09.422Z,67.12
2024-04-13T03:49:09.383Z,67.37
2024-04-13T03:50:09.361Z,67.54
2024-04-13T03:51:09.396Z,67.15
2024-04-13T03:52:09.396Z,67.14
2024-04-13T03:53:09.383Z,67.10
2024-04-13T03:56:45.101Z,69.95
2024-04-13T03:57:18.113Z,67.72
2024-04-13T03:58:18.051Z,67.23
2024-04-13T03:59:18.080Z,66.69
2024-04-13T04:00:18.227Z,66.32
2024-04-13T04:01:18.107Z,66.36
2024-04-13T04:03:59.560Z,69.30
2024-04-13T04:04:22.481Z,67.73
2024-04-13T04:05:22.423Z,67.27
2024-04-13T04:09:05.691Z,72.39
2024-04-13T04:11:02.539Z,72.68
2024-04-13T04:11:35.500Z,70.22
2024-04-13T04:12:35.554Z,69.59
2024-04-13T04:13:35.478Z,68.95
2024-04-13T04:14:36.155Z,68.15
2024-04-13T04:15:35.679Z,68.28
2024-04-13T04:16:35.446Z,68.72
2024-04-13T04:17:35.536Z,67.67
2024-04-13T04:18:35.582Z,67.27
2024-04-13T04:19:35.455Z,67.42
2024-04-13T04:20:35.506Z,67.03
2024-04-13T04:21:35.490Z,66.76
2024-04-13T04:22:35.465Z,67.00
2024-04-13T04:23:35.507Z,67.16
2024-04-13T04:24:35.501Z,66.94
2024-04-13T04:25:35.467Z,66.95
2024-04-13T04:26:35.485Z,66.89
2024-04-13T04:27:35.653Z,66.94
2024-04-13T04:28:35.464Z,66.86
2024-04-13T04:29:35.524Z,66.35
2024-04-13T04:30:35.466Z,66.26
2024-04-13T04:31:35.474Z,66.49
2024-04-13T04:32:35.503Z,66.69
2024-04-13T04:33:35.512Z,66.79
2024-04-13T04:34:35.477Z,66.72
2024-04-13T04:35:35.577Z,66.83
2024-04-13T04:36:35.569Z,66.98
2024-04-13T04:37:35.517Z,67.09
2024-04-13T04:38:35.497Z,65.93
2024-04-13T04:39:35.476Z,66.08
2024-04-13T04:40:35.516Z,66.05
2024-04-13T04:41:35.510Z,66.16
2024-04-13T04:42:35.591Z,66.28
2024-04-13T04:43:35.584Z,66.44
2024-04-13T04:44:35.691Z,66.45
2024-04-13T04:45:35.722Z,66.88
2024-04-13T04:48:09.891Z,70.32
2024-04-13T04:48:40.314Z,67.91
2024-04-13T04:49:40.092Z,68.00
2024-04-13T04:50:40.091Z,68.19
2024-04-13T04:51:40.137Z,68.19
2024-04-13T04:52:42.497Z,67.67
2024-04-13T04:53:40.081Z,67.93
2024-04-13T04:54:40.195Z,68.09
2024-04-13T04:55:40.089Z,67.94
2024-04-13T04:59:15.817Z,70.53
2024-04-13T05:02:24.573Z,69.47
2024-04-13T05:02:57.490Z,67.46
2024-04-13T05:03:57.536Z,67.30
2024-04-13T05:04:57.474Z,67.26
2024-04-13T05:05:57.496Z,67.50
2024-04-13T05:06:57.487Z,67.58
2024-04-13T05:15:00.576Z,70.96
2024-04-13T05:15:23.609Z,69.32
2024-04-13T05:16:23.590Z,68.83
2024-04-13T05:17:23.581Z,68.11
2024-04-13T05:18:23.771Z,68.14
2024-04-13T05:19:23.639Z,67.99
2024-04-13T05:20:23.568Z,68.10
2024-04-13T05:21:23.699Z,68.59
2024-04-13T05:22:23.590Z,68.57
2024-04-13T05:23:23.567Z,68.25
2024-04-13T05:24:23.674Z,68.66
2024-04-13T05:33:25.314Z,71.57
2024-04-13T05:33:54.172Z,70.09
2024-04-13T05:34:54.013Z,69.61
2024-04-13T05:35:54.042Z,69.35
2024-04-13T05:39:29.921Z,71.91
2024-04-13T05:40:02.765Z,70.12
2024-04-13T05:41:02.728Z,69.62
2024-04-13T05:42:02.733Z,69.41
2024-04-13T05:43:02.762Z,69.31
2024-04-13T05:44:02.723Z,69.22
2024-04-13T05:45:02.720Z,69.23
2024-04-13T05:46:02.735Z,69.28
2024-04-13T05:47:02.731Z,69.35
2024-04-13T05:48:02.772Z,69.82
2024-04-13T05:49:02.742Z,70.14
2024-04-13T05:50:02.739Z,70.26
2024-04-13T05:51:02.751Z,70.38
2024-04-13T05:52:02.748Z,70.26
2024-04-13T05:55:38.788Z,75.18
2024-04-13T05:56:11.437Z,72.63
2024-04-13T05:57:11.563Z,73.34
2024-04-13T05:58:14.068Z,73.41
2024-04-13T05:59:11.423Z,73.08
2024-04-13T06:00:11.452Z,73.21
2024-04-13T06:01:11.521Z,72.85
2024-04-13T06:02:11.448Z,72.65
2024-04-13T06:03:11.587Z,72.55
2024-04-13T06:04:11.511Z,71.80
2024-04-13T06:05:11.459Z,72.01
2024-04-13T06:06:11.510Z,72.38
2024-04-13T06:07:11.443Z,72.55
2024-04-13T06:08:11.462Z,72.99
2024-04-13T06:09:11.499Z,73.02
2024-04-13T06:10:11.457Z,73.39
2024-04-13T06:11:11.468Z,73.47
2024-04-13T06:12:11.504Z,72.73
2024-04-13T06:13:11.466Z,72.41
2024-04-13T06:14:11.451Z,72.09
2024-04-13T06:15:11.527Z,71.34
2024-04-13T06:16:11.498Z,70.89
2024-04-13T06:17:11.458Z,70.19
2024-04-13T06:18:11.535Z,69.57
2024-04-13T06:19:11.451Z,69.08
2024-04-13T06:32:26.342Z,71.01
2024-04-13T06:32:59.365Z,69.51
2024-04-13T06:33:59.408Z,68.92
2024-04-13T06:34:59.277Z,68.86
2024-04-13T06:35:59.300Z,68.84
2024-04-13T06:36:59.284Z,68.98
2024-04-13T06:37:59.298Z,69.01
2024-04-13T06:38:59.303Z,69.28
2024-04-13T06:39:59.315Z,69.31
2024-04-13T06:40:59.310Z,69.42
2024-04-13T06:41:59.338Z,69.74
2024-04-13T06:42:59.296Z,69.69
2024-04-13T06:43:59.297Z,69.47
2024-04-13T06:44:59.308Z,68.98
2024-04-13T06:45:59.339Z,68.78
2024-04-13T06:46:59.315Z,68.50
2024-04-13T06:47:59.381Z,68.31
2024-04-13T06:53:53.740Z,72.86
2024-04-13T06:54:16.825Z,70.32
2024-04-13T06:55:16.707Z,69.96
2024-04-13T06:56:16.718Z,70.09
2024-04-13T06:57:16.772Z,70.02
2024-04-13T07:01:06.135Z,71.95
2024-04-13T07:01:36.632Z,69.68
2024-04-13T07:02:36.598Z,68.98
2024-04-13T07:03:36.654Z,68.94
2024-04-13T07:04:36.628Z,69.16
2024-04-13T07:05:36.534Z,70.21
2024-04-13T07:06:36.585Z,70.06
2024-04-13T07:07:36.635Z,70.18
2024-04-13T07:08:43.828Z,70.57
2024-04-13T07:09:37.616Z,70.23
2024-04-13T07:10:36.540Z,69.74
2024-04-13T07:11:36.503Z,70.03
2024-04-13T07:12:36.511Z,69.79
2024-04-13T07:13:36.534Z,69.53
2024-04-13T07:14:36.558Z,69.18
2024-04-13T07:15:36.650Z,69.25
2024-04-13T07:16:36.532Z,69.45
2024-04-13T07:17:36.654Z,69.26
2024-04-13T07:18:36.633Z,69.18
2024-04-13T07:19:36.588Z,69.15
2024-04-13T07:20:36.527Z,68.75
2024-04-13T07:21:36.590Z,68.93
2024-04-13T07:22:36.659Z,68.72
2024-04-13T07:23:36.692Z,68.53
2024-04-13T07:24:36.733Z,68.48
2024-04-13T07:25:36.747Z,68.31
2024-04-13T07:26:36.810Z,68.97
2024-04-13T07:27:36.865Z,68.85
2024-04-13T07:28:36.867Z,68.69
2024-04-13T07:29:36.898Z,68.39
2024-04-13T07:30:36.914Z,68.32
2024-04-13T07:31:36.952Z,67.93
2024-04-13T07:32:37.085Z,67.54
2024-04-13T07:33:37.044Z,67.15
2024-04-13T07:34:36.996Z,67.31
2024-04-13T07:35:36.998Z,67.42
2024-04-13T07:45:52.204Z,68.67
2024-04-13T07:46:14.881Z,67.23
2024-04-13T07:47:14.867Z,66.60
2024-04-13T07:48:15.036Z,66.12
2024-04-13T07:51:54.623Z,67.73
2024-04-13T07:52:23.578Z,65.93
2024-04-13T07:53:23.551Z,65.17
2024-04-13T07:54:23.580Z,64.85
2024-04-13T07:55:23.591Z,64.70
2024-04-13T07:56:23.557Z,64.89
2024-04-13T07:57:23.610Z,64.93
2024-04-13T07:58:23.562Z,65.01
2024-04-13T07:59:23.586Z,65.24
2024-04-13T08:00:23.619Z,63.67
2024-04-13T08:01:23.593Z,63.63
2024-04-13T08:02:23.579Z,64.20
2024-04-13T08:03:23.681Z,63.90
2024-04-13T08:04:23.754Z,63.86
2024-04-13T08:11:31.441Z,65.21
2024-04-13T08:12:04.348Z,63.54
2024-04-13T08:13:04.376Z,63.11
2024-04-13T08:14:04.374Z,62.68
2024-04-13T08:15:04.370Z,62.69
2024-04-13T08:16:04.374Z,62.62
2024-04-13T08:17:04.435Z,62.51
2024-04-13T08:18:04.415Z,62.61
2024-04-13T08:26:07.506Z,65.28
2024-04-13T08:26:30.459Z,63.78
2024-04-13T08:27:32.787Z,63.56
2024-04-13T08:28:30.492Z,63.44
2024-04-13T08:29:30.452Z,63.13
2024-04-13T08:30:30.467Z,62.67
2024-04-13T08:31:30.497Z,63.16
2024-04-13T08:36:20.556Z,64.68
2024-04-13T08:36:43.593Z,63.17
2024-04-13T08:37:43.521Z,62.70
2024-04-13T08:38:43.500Z,62.08
2024-04-13T08:39:43.676Z,61.86
2024-04-13T08:40:43.505Z,61.57
2024-04-13T08:41:43.499Z,61.32
2024-04-13T08:42:43.555Z,61.23
2024-04-13T08:43:43.487Z,61.18
2024-04-13T08:44:43.512Z,61.29
2024-04-13T08:45:43.583Z,61.47
2024-04-13T08:46:43.507Z,61.40
2024-04-13T08:47:43.603Z,60.89
2024-04-13T08:48:43.652Z,60.56
2024-04-13T08:49:43.509Z,61.11
2024-04-13T08:50:43.540Z,60.56
2024-04-13T08:51:43.643Z,59.50
2024-04-13T08:52:43.517Z,59.40
2024-04-13T08:53:43.519Z,59.47
2024-04-13T08:54:43.585Z,60.02
2024-04-13T08:55:43.529Z,59.46
2024-04-13T08:56:43.554Z,59.86
2024-04-13T08:57:43.599Z,59.62
2024-04-13T08:58:43.571Z,59.75
2024-04-13T08:59:43.532Z,59.86
2024-04-13T09:00:48.640Z,60.10
2024-04-13T09:01:50.125Z,60.14
2024-04-13T09:02:43.549Z,59.86
2024-04-13T09:07:33.015Z,62.13
2024-04-13T09:07:56.626Z,59.32
2024-04-13T09:08:56.595Z,57.99
2024-04-13T09:09:56.576Z,57.55
2024-04-13T09:10:56.614Z,57.81
2024-04-13T09:12:00.469Z,57.84
2024-04-13T09:21:01.573Z,60.64
2024-04-13T09:21:27.066Z,59.09
2024-04-13T09:22:27.016Z,58.24
2024-04-13T09:23:27.037Z,58.06
2024-04-13T09:24:27.071Z,58.13
2024-04-13T09:25:27.040Z,58.09
2024-04-13T09:26:27.023Z,57.72
2024-04-13T09:27:27.045Z,57.40
2024-04-13T09:28:27.038Z,57.35
2024-04-13T09:29:27.082Z,57.90
2024-04-13T09:30:27.085Z,58.57
2024-04-13T09:31:27.034Z,58.98
2024-04-13T09:32:27.098Z,58.25
2024-04-13T09:33:27.111Z,58.01
2024-04-13T09:34:27.045Z,57.94
2024-04-13T09:51:04.953Z,56.07
2024-04-13T09:51:27.993Z,55.59
2024-04-13T09:52:27.910Z,55.63
2024-04-13T09:53:27.962Z,54.96
2024-04-13T09:54:28.172Z,54.62
2024-04-13T09:55:27.918Z,55.50
2024-04-13T10:00:11.989Z,55.32
2024-04-13T10:00:41.189Z,54.01
2024-04-13T10:01:41.098Z,52.98
2024-04-13T10:02:40.992Z,52.92
2024-04-13T10:03:41.111Z,52.94
2024-04-13T10:04:40.982Z,52.36
2024-04-13T10:05:40.983Z,52.49
2024-04-13T10:06:41.021Z,52.30
2024-04-13T10:07:40.991Z,52.40
2024-04-13T10:08:40.993Z,53.47
2024-04-13T10:09:41.043Z,52.66
2024-04-13T10:10:40.981Z,52.66
2024-04-13T10:11:40.985Z,52.72
2024-04-13T10:18:39.836Z,54.90
2024-04-13T10:19:02.781Z,53.48
2024-04-13T10:20:02.722Z,52.81
2024-04-13T10:21:02.727Z,52.45
2024-04-13T10:22:03.927Z,52.20
2024-04-13T10:23:02.772Z,52.06
2024-04-13T10:24:02.732Z,52.11
2024-04-13T10:25:02.721Z,52.14
2024-04-13T10:26:02.734Z,52.30
2024-04-13T10:27:02.739Z,52.27
2024-04-13T10:28:02.771Z,51.96
2024-04-13T10:29:02.766Z,51.58
2024-04-13T10:30:02.752Z,51.69
2024-04-13T11:12:24.658Z,51.33
2024-04-13T11:12:57.650Z,50.25
2024-04-13T11:13:57.650Z,50.09
2024-04-13T11:14:57.599Z,49.72
2024-04-13T11:15:57.621Z,49.48
2024-04-13T11:16:57.639Z,49.79
2024-04-13T11:17:57.719Z,50.16
2024-04-13T11:18:57.723Z,49.67
2024-04-13T11:19:57.600Z,49.88
2024-04-13T11:20:57.608Z,48.58
2024-04-13T11:21:57.644Z,47.37
2024-04-13T11:22:57.593Z,47.42
2024-04-13T11:23:57.603Z,48.16
2024-04-13T11:24:57.607Z,48.34
2024-04-13T11:25:57.617Z,48.11
2024-04-13T11:26:57.621Z,48.40
2024-04-13T11:27:57.665Z,47.43
2024-04-13T11:28:57.612Z,46.26
2024-04-13T11:29:57.615Z,46.98
2024-04-13T11:30:57.888Z,47.05
2024-04-13T11:31:57.664Z,46.20
2024-04-13T11:32:58.516Z,46.03
2024-04-13T11:33:57.694Z,46.26
2024-04-13T11:34:57.659Z,45.12
2024-04-13T11:35:57.647Z,45.02
2024-04-13T11:36:57.721Z,44.37
2024-04-13T11:37:57.628Z,44.37
2024-04-13T11:38:57.632Z,44.50
2024-04-13T11:39:57.656Z,44.89
2024-04-13T11:49:02.706Z,43.28
2024-04-13T11:49:30.046Z,42.62
2024-04-13T11:50:28.083Z,42.84
2024-04-13T11:51:28.119Z,43.08
2024-04-13T11:52:29.478Z,42.92
2024-04-13T11:53:28.073Z,42.69
2024-04-13T11:54:28.174Z,42.93
2024-04-13T11:55:28.083Z,43.15
2024-04-13T11:56:28.091Z,42.37
2024-04-13T11:57:28.159Z,42.34
2024-04-13T11:58:28.096Z,42.16
2024-04-13T11:59:28.095Z,42.24
2024-04-13T12:00:28.130Z,42.00
2024-04-13T12:01:28.118Z,42.34
2024-04-13T12:02:28.129Z,42.54
2024-04-13T12:03:28.173Z,42.29
2024-04-13T12:04:28.137Z,41.42
2024-04-13T12:05:28.089Z,41.19
2024-04-13T12:06:28.125Z,41.16
2024-04-13T12:07:28.108Z,41.16
2024-04-13T12:08:28.110Z,39.71
2024-04-13T12:09:28.198Z,40.00
2024-04-13T12:13:13.813Z,41.10
2024-04-13T12:13:36.847Z,39.40
2024-04-13T12:14:46.659Z,39.38
2024-04-13T12:15:37.859Z,38.77
2024-04-13T12:16:45.065Z,39.06
2024-04-13T12:17:45.141Z,40.00
2024-04-13T12:18:45.279Z,39.99
2024-04-13T12:19:45.120Z,39.37
2024-04-13T12:28:55.856Z,41.63
2024-04-13T12:29:25.863Z,41.27
2024-04-13T12:30:25.875Z,40.90
2024-04-13T12:31:25.843Z,40.14
2024-04-13T12:44:50.701Z,40.63
2024-04-13T12:45:13.677Z,39.83
2024-04-13T12:46:13.658Z,39.05
2024-04-13T12:47:13.696Z,38.31
2024-04-13T12:48:13.760Z,38.25
2024-04-13T12:49:13.704Z,37.70
2024-04-13T12:50:13.661Z,38.45
2024-04-13T12:51:13.671Z,37.78
2024-04-13T12:52:13.683Z,37.52
2024-04-13T12:53:13.694Z,37.29
2024-04-13T12:54:13.696Z,37.66
2024-04-13T12:55:13.667Z,36.86
2024-04-13T12:56:13.663Z,36.95
2024-04-13T12:57:13.673Z,36.75
2024-04-13T12:58:13.682Z,36.77
2024-04-13T13:01:53.430Z,37.41
2024-04-13T13:02:22.444Z,36.41
2024-04-13T13:03:22.454Z,35.75
2024-04-13T13:04:22.397Z,35.44
2024-04-13T13:09:18.981Z,37.38
2024-04-13T13:09:47.988Z,35.96
2024-04-13T13:10:47.938Z,36.28
2024-04-13T13:11:52.928Z,36.05
2024-04-13T13:12:47.969Z,35.36
2024-04-13T13:13:47.913Z,34.92
2024-04-13T13:14:47.920Z,35.09
2024-04-13T13:15:47.961Z,35.13
2024-04-13T13:16:47.947Z,35.27
2024-04-13T13:17:47.945Z,35.19
2024-04-13T13:18:47.964Z,35.36
2024-04-13T13:21:23.333Z,36.82
2024-04-13T13:21:52.344Z,35.81
2024-04-13T13:22:52.244Z,34.68
2024-04-13T13:23:52.248Z,33.89
2024-04-13T13:26:33.597Z,35.14
2024-04-13T13:26:56.608Z,34.42
2024-04-13T13:27:56.640Z,34.22
2024-04-13T13:28:58.943Z,33.87
2024-04-13T13:29:56.646Z,33.34
2024-04-13T13:30:56.750Z,32.39
2024-04-13T13:31:56.763Z,32.81
2024-04-13T13:32:56.840Z,33.24
2024-04-13T13:33:56.909Z,32.04
2024-04-13T13:34:56.875Z,31.90
2024-04-13T13:35:56.858Z,31.85
2024-04-13T13:36:57.029Z,31.73
2024-04-13T13:37:56.965Z,32.37
2024-04-13T13:38:57.007Z,31.17
2024-04-13T13:39:57.116Z,31.46
2024-04-13T13:40:57.095Z,33.66
2024-04-13T13:41:57.117Z,34.54
2024-04-13T13:42:57.147Z,34.70
2024-04-13T13:43:57.180Z,35.29
2024-04-13T13:44:57.210Z,34.56
2024-04-13T13:45:57.237Z,31.91
2024-04-13T13:46:57.267Z,32.22
2024-04-13T13:47:57.350Z,31.45
2024-04-13T13:48:57.456Z,30.40
2024-04-13T13:49:57.359Z,30.16
2024-04-13T13:50:57.403Z,29.90
2024-04-13T13:51:57.510Z,29.68
2024-04-13T13:52:57.516Z,29.78
2024-04-13T13:53:57.514Z,29.56
2024-04-13T13:54:57.554Z,29.59
2024-04-13T13:55:57.646Z,29.31
2024-04-13T13:56:57.668Z,28.82
2024-04-13T13:57:57.708Z,28.96
2024-04-13T13:58:59.094Z,29.23
2024-04-13T13:59:57.824Z,28.86
2024-04-13T14:00:58.034Z,28.80
2024-04-13T14:01:57.982Z,28.59
2024-04-13T14:02:58.027Z,28.00
2024-04-13T14:03:58.067Z,28.17
2024-04-13T14:04:59.734Z,27.63
2024-04-13T14:17:12.585Z,27.85
2024-04-13T14:17:41.626Z,27.66
2024-04-13T14:18:41.605Z,27.25
2024-04-13T14:19:41.523Z,27.19
2024-04-13T14:20:41.563Z,27.15
2024-04-13T14:21:41.543Z,26.63
2024-04-13T14:22:41.539Z,27.24
2024-04-13T14:23:41.545Z,27.14
2024-04-13T14:24:41.551Z,26.77
2024-04-13T14:25:41.575Z,27.06
2024-04-13T14:26:41.530Z,26.79
2024-04-13T14:27:41.570Z,26.55
2024-04-13T14:28:41.536Z,26.13
2024-04-13T14:29:41.557Z,25.92
2024-04-13T14:30:41.585Z,25.60
2024-04-13T14:31:41.562Z,25.92
2024-04-13T14:32:41.638Z,26.05
2024-04-13T14:33:41.611Z,25.77
2024-04-13T14:34:41.554Z,25.95
2024-04-13T14:35:41.540Z,25.95
2024-04-13T14:36:41.951Z,25.68
2024-04-13T14:37:41.558Z,25.60
2024-04-13T14:38:41.548Z,25.19
2024-04-13T14:39:41.674Z,25.19
2024-04-13T14:40:41.559Z,25.22
2024-04-13T14:41:41.556Z,25.34
2024-04-13T14:42:41.626Z,25.33
2024-04-13T14:43:41.591Z,25.48
2024-04-13T14:44:41.590Z,25.01
2024-04-13T14:45:41.571Z,24.60
2024-04-13T14:46:41.559Z,24.99
2024-04-13T14:47:41.590Z,25.57
2024-04-13T14:48:41.715Z,24.93
2024-04-13T14:49:41.586Z,25.30
2024-04-13T14:50:41.564Z,24.93
2024-04-13T14:51:41.607Z,25.17
2024-04-13T14:52:41.561Z,25.39
2024-04-13T14:53:41.562Z,25.55
2024-04-13T14:54:41.718Z,25.84
2024-04-13T14:55:41.633Z,25.38
2024-04-13T14:56:41.642Z,25.17
2024-04-13T14:57:41.718Z,25.46
2024-04-13T14:58:41.749Z,26.38
2024-04-13T14:59:41.752Z,26.76
2024-04-13T15:00:41.813Z,26.81
2024-04-13T15:01:41.867Z,26.65
2024-04-13T15:02:41.882Z,26.67
2024-04-13T15:03:41.932Z,26.16
2024-04-13T15:04:42.000Z,25.80
2024-04-13T15:09:26.161Z,29.35
2024-04-13T15:09:55.011Z,28.37
2024-04-13T15:20:02.407Z,30.50
2024-04-13T15:20:30.037Z,29.70
2024-04-13T15:21:30.138Z,29.24
2024-04-13T15:22:30.102Z,29.71
2024-04-13T15:23:30.164Z,29.64
2024-04-13T15:24:30.150Z,29.71
2024-04-13T15:25:30.202Z,29.92
2024-04-13T15:26:30.214Z,30.19
2024-04-13T15:27:30.310Z,30.19
2024-04-13T15:28:30.320Z,30.40
2024-04-13T15:29:30.329Z,30.58
2024-04-13T15:30:30.414Z,30.90
2024-04-13T15:31:30.456Z,31.16
2024-04-13T15:32:30.530Z,31.20
2024-04-13T15:33:30.571Z,31.80
2024-04-13T15:34:30.565Z,32.54
2024-04-13T15:35:30.579Z,32.75
2024-04-13T15:36:30.608Z,32.34
2024-04-13T15:37:30.619Z,32.34
2024-04-13T15:50:45.488Z,39.62
2024-04-13T15:51:18.520Z,37.69
2024-04-13T15:52:18.474Z,36.83
2024-04-13T15:53:18.472Z,37.08
2024-04-13T15:54:18.530Z,36.53
2024-04-13T15:55:18.463Z,36.81
2024-04-13T15:56:18.469Z,35.73
2024-04-13T15:57:18.545Z,36.01
2024-04-13T15:58:18.481Z,35.23
2024-04-13T15:59:18.473Z,35.26
2024-04-13T16:00:18.553Z,35.26
2024-04-13T16:01:18.576Z,35.09
2024-04-13T16:02:18.542Z,34.85
2024-04-13T16:03:18.558Z,34.90
2024-04-13T16:04:18.560Z,35.47
2024-04-13T16:05:18.501Z,36.15
2024-04-13T16:06:18.496Z,35.43
2024-04-13T16:07:18.477Z,35.38
2024-04-13T16:08:18.480Z,34.62
2024-04-13T16:09:18.594Z,34.23
2024-04-13T16:12:55.758Z,35.81
2024-04-13T16:18:11.591Z,37.55
2024-04-13T16:18:44.596Z,37.87
2024-04-13T16:19:44.573Z,37.08
2024-04-13T16:20:44.569Z,35.42
2024-04-13T16:21:44.637Z,35.06
2024-04-13T16:22:44.585Z,36.50
2024-04-13T16:23:44.570Z,35.26
2024-04-13T16:24:45.400Z,35.06
2024-04-13T16:25:44.664Z,34.92
2024-04-13T16:26:44.733Z,36.81
2024-04-13T16:27:44.794Z,39.82
2024-04-13T16:28:44.780Z,38.53
2024-04-13T16:29:44.860Z,41.73
2024-04-13T16:30:44.893Z,42.91
2024-04-13T16:31:44.930Z,45.98
2024-04-13T16:32:45.089Z,44.34
2024-04-13T16:33:45.074Z,42.50
2024-04-13T16:34:45.109Z,42.02
2024-04-13T16:39:25.292Z,48.02
2024-04-13T16:39:58.223Z,47.16
2024-04-13T16:40:58.177Z,47.09
2024-04-13T16:41:58.188Z,47.15
2024-04-13T16:42:58.226Z,48.21
2024-04-13T16:43:58.181Z,48.33
2024-04-13T16:44:58.181Z,48.91
2024-04-13T16:56:07.338Z,46.60
2024-04-13T16:56:37.346Z,44.96
2024-04-13T16:57:37.391Z,43.62
2024-04-13T16:58:37.292Z,44.21
2024-04-13T16:59:37.315Z,44.34
2024-04-13T17:00:37.366Z,43.47
2024-04-13T17:01:37.332Z,43.15
2024-04-13T17:02:37.401Z,43.40
2024-04-13T17:03:37.364Z,44.15
2024-04-13T17:04:37.317Z,45.66
2024-04-13T17:05:37.312Z,43.53
2024-04-13T17:06:37.370Z,44.45
2024-04-13T17:07:37.325Z,44.11
2024-04-13T17:08:37.333Z,43.16
2024-04-13T17:09:37.336Z,42.73
2024-04-13T17:10:37.332Z,43.28
2024-04-13T17:14:18.529Z,43.18
2024-04-13T17:14:46.193Z,41.47
2024-04-13T17:15:46.274Z,41.12
2024-04-13T17:16:46.231Z,40.80
2024-04-13T17:17:48.370Z,41.46
2024-04-13T17:18:46.580Z,41.55
2024-04-13T17:23:29.651Z,44.21
2024-04-13T17:23:59.608Z,43.63
2024-04-13T17:24:59.628Z,43.31
2024-04-13T17:25:59.610Z,43.27
2024-04-13T17:26:59.629Z,41.91
2024-04-13T17:27:59.609Z,41.39
2024-04-13T17:28:59.600Z,41.20
2024-04-13T17:29:59.602Z,42.53
2024-04-13T17:30:59.677Z,42.13
2024-04-13T17:31:59.633Z,41.68
2024-04-13T17:32:59.627Z,41.02
2024-04-13T17:33:59.680Z,41.14
2024-04-13T17:34:59.627Z,40.97
2024-04-13T17:40:44.067Z,44.29
2024-04-13T17:41:17.017Z,42.27
2024-04-13T17:42:17.044Z,41.79
2024-04-13T17:43:17.027Z,41.34
2024-04-13T17:44:16.998Z,41.17
2024-04-13T17:45:17.021Z,41.33
2024-04-13T17:46:17.017Z,41.07
2024-04-13T17:56:24.346Z,43.89
2024-04-13T17:56:52.050Z,42.46
2024-04-13T17:57:52.229Z,41.95
2024-04-13T17:58:52.114Z,42.34
2024-04-13T17:59:52.145Z,43.62
2024-04-13T18:00:52.220Z,45.05
2024-04-13T18:01:52.212Z,44.73
2024-04-13T18:02:52.282Z,45.14
2024-04-13T18:03:52.439Z,44.38
2024-04-13T18:04:52.449Z,44.00
2024-04-13T18:05:52.366Z,44.04
2024-04-13T18:06:52.500Z,43.26